createdAt,value
2022-09-06T00:04:52.697Z,19.2
2022-09-06T00:15:53.840Z,18.6
2022-09-06T00:21:35.001Z,18.5
2022-09-06T00:27:15.264Z,18.4
2022-09-06T00:32:55.697Z,18.4
2022-09-06T00:38:36.143Z,18.3
2022-09-06T00:44:16.505Z,18.4
2022-09-06T00:49:56.704Z,18.4
2022-09-06T00:55:40.251Z,18.5
2022-09-06T01:01:29.377Z,18.5
2022-09-06T01:07:11.549Z,18.5
2022-09-06T01:12:52.087Z,18.4
2022-09-06T01:18:32.684Z,18.5
2022-09-06T01:24:12.772Z,18.4
2022-09-06T01:29:52.972Z,18.2
2022-09-06T01:35:33.087Z,18.1
2022-09-06T01:41:13.159Z,18
2022-09-06T01:46:53.240Z,17.9
2022-09-06T01:52:33.632Z,17.6
2022-09-06T01:58:13.837Z,17.5
2022-09-06T02:03:54.184Z,17.5
2022-09-06T02:09:34.281Z,17.4
2022-09-06T02:15:14.332Z,17.3
2022-09-06T02:20:54.489Z,17.2
2022-09-06T02:26:34.672Z,17.1
2022-09-06T02:32:14.774Z,17.1
2022-09-06T02:37:55.064Z,16.9
2022-09-06T02:43:35.215Z,16.9
2022-09-06T02:49:15.312Z,16.7
2022-09-06T02:54:55.782Z,16.6
2022-09-06T03:00:35.936Z,16.6
2022-09-06T03:06:16.003Z,16.6
2022-09-06T03:11:56.084Z,16.6
2022-09-06T03:20:49.278Z,16.7
2022-09-06T03:26:35.056Z,17.3
2022-09-06T03:32:49.616Z,17
2022-09-06T03:46:21.912Z,17
2022-09-06T03:52:06.464Z,16.9
2022-09-06T03:57:48.154Z,16.7
2022-09-06T04:09:40.330Z,16.7
2022-09-06T04:15:22.456Z,16.6
2022-09-06T04:21:04.226Z,16.5
2022-09-06T04:26:44.810Z,16.5
2022-09-06T04:32:25.537Z,16.4
2022-09-06T04:38:05.657Z,16.4
2022-09-06T04:43:46.394Z,16.4
2022-09-06T04:49:27.768Z,16.5
2022-09-06T04:55:08.100Z,16.5
2022-09-06T05:00:48.643Z,16.4
2022-09-06T05:06:30.174Z,16.4
2022-09-06T05:12:10.486Z,16.5
2022-09-06T05:17:50.728Z,16.6
2022-09-06T05:23:31.219Z,16.7
2022-09-06T05:29:13.213Z,16.8
2022-09-06T05:34:59.323Z,17
2022-09-06T05:46:42.925Z,17.8
2022-09-06T05:52:58.441Z,19.9
2022-09-06T05:59:45.057Z,21.9
2022-09-06T06:08:58.983Z,22.6
2022-09-06T06:14:39.173Z,23.3
2022-09-06T06:51:33.494Z,27.1
2022-09-06T08:02:59.120Z,32
2022-09-06T08:14:39.610Z,32.5
2022-09-06T08:20:22.010Z,32.9
2022-09-06T08:26:02.236Z,32.2
2022-09-06T08:31:42.175Z,32.5
2022-09-06T08:37:25.140Z,32.9
2022-09-06T08:43:11.679Z,33.1
2022-09-06T08:48:55.425Z,32.6
2022-09-06T08:54:38.922Z,33.6
2022-09-06T09:00:19.280Z,33.6
2022-09-06T09:05:59.751Z,32.8
2022-09-06T09:11:42.067Z,33.8
2022-09-06T09:17:25.597Z,33.6
2022-09-06T09:23:23.834Z,33.3
2022-09-06T09:29:09.649Z,33.9
2022-09-06T09:34:50.056Z,33.9
2022-09-06T09:40:32.732Z,33.4
2022-09-06T09:46:12.978Z,33.7
2022-09-06T09:51:58.344Z,34
2022-09-06T09:57:44.576Z,34
2022-09-06T10:03:36.117Z,33.3
2022-09-06T10:10:26.336Z,34.1
2022-09-06T10:16:06.714Z,34.3
2022-09-06T10:21:48.025Z,36.3
2022-09-06T10:27:29.993Z,35.1
2022-09-06T10:33:17.956Z,33.7
2022-09-06T10:39:04.390Z,33.4
2022-09-06T10:44:46.025Z,35.1
2022-09-06T10:50:27.552Z,33.5
2022-09-06T10:56:13.966Z,33.8
2022-09-06T11:01:54.350Z,33.1
2022-09-06T11:07:35.918Z,33.7
2022-09-06T11:13:17.494Z,33.4
2022-09-06T11:18:58.357Z,33.9
2022-09-06T11:24:44.641Z,34.8
2022-09-06T11:30:24.889Z,34
2022-09-06T11:36:04.675Z,32.7
2022-09-06T11:41:45.678Z,33
2022-09-06T11:47:29.230Z,32.4
2022-09-06T11:53:12.007Z,32.4
2022-09-06T11:58:51.661Z,32.6
2022-09-06T12:04:32.663Z,34.7
2022-09-06T12:10:12.393Z,34.2
2022-09-06T12:15:52.672Z,34.8
2022-09-06T12:21:33.722Z,35.4
2022-09-06T12:27:14.225Z,34.7
2022-09-06T12:32:58.912Z,33.8
2022-09-06T12:38:45.630Z,33.5
2022-09-06T12:44:32.342Z,35.5
2022-09-06T12:50:14.828Z,33.8
2022-09-06T12:55:55.069Z,34.5
2022-09-06T14:31:53.922Z,33.5
2022-09-06T14:37:34.373Z,32.8
2022-09-06T14:43:14.191Z,31.8
2022-09-06T14:48:57.406Z,31.1
2022-09-06T14:54:37.487Z,30.8
2022-09-06T15:00:17.464Z,30.4
2022-09-06T15:05:57.546Z,30.4
2022-09-06T15:11:37.837Z,30.3
2022-09-06T15:17:17.989Z,30.2
2022-09-06T15:23:15.085Z,30.1
2022-09-06T15:29:06.519Z,30
2022-09-06T15:34:47.249Z,29.9
2022-09-06T15:40:27.689Z,29.8
2022-09-06T15:46:07.726Z,29.6
2022-09-06T15:51:48.231Z,29.5
2022-09-06T15:57:28.389Z,29.6
2022-09-06T16:03:08.612Z,29.7
2022-09-06T16:08:48.809Z,30
2022-09-06T16:14:28.926Z,30.1
2022-09-06T16:20:09.345Z,30
2022-09-06T16:25:49.758Z,30.1
2022-09-06T16:31:30.192Z,30.2
2022-09-06T16:37:10.854Z,30.3
2022-09-06T16:42:50.988Z,30.3
2022-09-06T16:48:31.412Z,30.4
2022-09-06T16:54:11.960Z,30.5
2022-09-06T16:59:52.418Z,30.3
2022-09-06T17:05:32.689Z,29.9
2022-09-06T17:11:12.921Z,29.5
2022-09-06T17:16:55.627Z,29
2022-09-06T17:22:36.903Z,28.7
2022-09-06T17:28:16.966Z,28.6
2022-09-06T17:33:57.131Z,28.4
2022-09-06T17:39:37.275Z,28.3
2022-09-06T17:45:17.933Z,28
2022-09-06T17:50:58.168Z,27.8
2022-09-06T17:56:38.350Z,27.7
2022-09-06T18:02:19.007Z,27.5
2022-09-06T18:07:59.157Z,27.2
2022-09-06T18:13:39.605Z,27.1
2022-09-06T18:19:19.586Z,27
2022-09-06T18:24:59.802Z,26.7
2022-09-06T18:30:45.183Z,26.3
2022-09-06T18:36:28.668Z,26
2022-09-06T18:42:13.440Z,26.1
2022-09-06T18:47:53.694Z,26
2022-09-06T18:53:35.857Z,25.7
2022-09-06T18:59:16.040Z,25.3
2022-09-06T19:04:58.907Z,24.9
2022-09-06T19:10:39.116Z,24.7
2022-09-06T19:16:19.695Z,24.6
2022-09-06T19:22:00.756Z,24.6
2022-09-06T19:27:42.861Z,24.5
2022-09-06T19:33:33.092Z,24.3
2022-09-06T19:39:16.749Z,24.1
2022-09-06T19:44:57.344Z,23.9
2022-09-06T19:50:37.744Z,23.7
2022-09-06T19:56:17.929Z,23.6
2022-09-06T20:01:58.302Z,23.7
2022-09-06T20:07:39.367Z,23.6
2022-09-06T20:13:19.778Z,23.7
2022-09-06T20:19:00.351Z,23.8
2022-09-06T20:24:40.797Z,24
2022-09-06T20:30:20.952Z,24.1
2022-09-06T20:49:53.489Z,24.5
2022-09-06T20:55:34.133Z,24.3
2022-09-06T21:01:15.079Z,24.1
2022-09-06T21:06:58.288Z,24
2022-09-06T21:12:38.767Z,24
2022-09-06T21:18:18.988Z,23.9
2022-09-06T21:23:59.327Z,23.7
2022-09-06T21:29:39.871Z,23.5
2022-09-06T21:35:19.886Z,23.4
2022-09-06T21:41:00.390Z,23.3
2022-09-06T21:46:40.583Z,23.2
2022-09-06T21:52:21.492Z,22.7
2022-09-06T21:58:01.199Z,20.6
2022-09-06T22:03:40.823Z,19.4
2022-09-06T22:09:20.924Z,19.1
2022-09-06T22:15:01.195Z,19.1
2022-09-06T22:20:44.326Z,19.1
2022-09-06T22:26:24.877Z,19.2
2022-09-06T22:32:04.977Z,19.3
2022-09-06T22:37:45.046Z,19.3
2022-09-06T22:43:27.336Z,18.6
2022-09-06T22:49:07.328Z,18.3
2022-09-06T22:54:47.437Z,18.2
2022-09-06T23:00:27.876Z,18.1
2022-09-06T23:06:08.703Z,18
2022-09-06T23:11:48.878Z,18
2022-09-06T23:17:29.100Z,18
2022-09-06T23:23:09.377Z,18
2022-09-06T23:28:49.552Z,18
2022-09-06T23:34:29.677Z,17.9
2022-09-06T23:40:09.749Z,17.9
2022-09-06T23:45:50.354Z,17.9
2022-09-06T23:51:30.760Z,18
2022-09-06T23:57:10.814Z,18
